Time;durP1;ratioP1;P1;durP2;ratioP2;P2;SDS_P1;SDS_P2;PMS_P1;PMS_P2;Temp;Humidity;BMP_temperature;BMP_pressure;BME280_temperature;BME280_humidity;BME280_pressure;Samples;Min_cycle;Max_cycle;Signal;HPM_P1;HPM_P2
2022/05/31 00:01:50;;;;;;;8.70;5.35;;;;;;;;;;5076243;28;20113;-66
2022/05/31 00:04:17;;;;;;;9.93;5.22;;;;;;;;;;5071092;28;20112;-66
2022/05/31 00:06:45;;;;;;;8.68;5.20;;;;;;;;;;5073595;28;20522;-66
2022/05/31 00:09:12;;;;;;;8.95;5.22;;;;;;;;;;5075649;28;20823;-66
2022/05/31 00:11:42;;;;;;;7.45;5.03;;;;;;;;;;5072480;28;20052;-66
2022/05/31 00:14:09;;;;;;;7.35;5.03;;;;;;;;;;5079244;28;20131;-66
2022/05/31 00:16:36;;;;;;;6.13;4.05;;;;;;;;;;5074455;28;20101;-66
2022/05/31 00:19:04;;;;;;;8.18;5.28;;;;;;;;;;5076353;28;20052;-66
2022/05/31 00:21:37;;;;;;;7.97;4.35;;;;;;;;;;5074910;28;20044;-66
2022/05/31 00:24:05;;;;;;;4.82;4.03;;;;;;;;;;5072374;28;20105;-66
2022/05/31 00:26:33;;;;;;;7.25;4.38;;;;;;;;;;5068617;28;20048;-66
2022/05/31 00:29:02;;;;;;;5.72;4.43;;;;;;;;;;5070874;28;20048;-66
2022/05/31 00:31:30;;;;;;;6.15;4.22;;;;;;;;;;5071932;28;20044;-66
2022/05/31 00:33:57;;;;;;;8.52;3.88;;;;;;;;;;5075461;28;20568;-66
2022/05/31 00:36:24;;;;;;;5.18;4.60;;;;;;;;;;5072644;28;20083;-66
2022/05/31 00:38:52;;;;;;;4.97;3.90;;;;;;;;;;5070722;28;20122;-66
2022/05/31 00:41:25;;;;;;;6.03;4.60;;;;;;;;;;5070453;28;20052;-66
2022/05/31 00:43:57;;;;;;;5.68;3.78;;;;;;;;;;5069578;28;20125;-66
2022/05/31 00:46:26;;;;;;;8.70;4.30;;;;;;;;;;5068802;28;20056;-66
2022/05/31 00:48:56;;;;;;;5.03;3.75;;;;;;;;;;5069565;28;20043;-66
2022/05/31 00:51:24;;;;;;;5.85;3.53;;;;;;;;;;5070052;28;20068;-66
2022/05/31 00:53:57;;;;;;;5.88;4.35;;;;;;;;;;5074325;28;20430;-66
2022/05/31 00:56:26;;;;;;;13.40;4.50;;;;;;;;;;5075004;28;20102;-66
2022/05/31 00:58:56;;;;;;;5.88;3.60;;;;;;;;;;5069840;28;20052;-66
2022/05/31 01:01:24;;;;;;;6.10;3.85;;;;;;;;;;5074795;28;20062;-66
2022/05/31 01:03:52;;;;;;;5.78;4.13;;;;;;;;;;5072656;28;20098;-66
2022/05/31 01:06:20;;;;;;;6.13;4.05;;;;;;;;;;5074032;28;20764;-66
2022/05/31 01:08:48;;;;;;;4.72;3.53;;;;;;;;;;5077107;28;20048;-66
2022/05/31 01:11:16;;;;;;;4.80;3.70;;;;;;;;;;5070690;28;20060;-66
2022/05/31 01:13:43;;;;;;;5.38;3.13;;;;;;;;;;5074243;28;20048;-66
2022/05/31 01:16:11;;;;;;;5.70;3.75;;;;;;;;;;5070350;28;20052;-66
2022/05/31 01:18:39;;;;;;;5.13;3.90;;;;;;;;;;5071600;28;20497;-66
2022/05/31 01:21:08;;;;;;;5.80;4.18;;;;;;;;;;5074190;28;20051;-66
2022/05/31 01:23:39;;;;;;;6.38;4.55;;;;;;;;;;5077158;28;20052;-66
2022/05/31 01:26:12;;;;;;;4.07;3.47;;;;;;;;;;5073959;28;20071;-66
2022/05/31 01:28:45;;;;;;;5.60;4.40;;;;;;;;;;5073733;28;20410;-66
2022/05/31 01:31:14;;;;;;;6.82;4.63;;;;;;;;;;5071164;28;20048;-66
2022/05/31 01:33:44;;;;;;;7.35;4.05;;;;;;;;;;5075252;28;20047;-66
2022/05/31 01:36:14;;;;;;;8.35;3.75;;;;;;;;;;5072210;28;20052;-66
2022/05/31 01:38:42;;;;;;;6.78;4.15;;;;;;;;;;5074108;28;20051;-66
2022/05/31 01:41:14;;;;;;;5.80;3.78;;;;;;;;;;5074604;28;20117;-66
2022/05/31 01:43:43;;;;;;;5.95;4.40;;;;;;;;;;5072414;28;20105;-66
2022/05/31 01:46:15;;;;;;;5.53;3.95;;;;;;;;;;5070104;28;20047;-66
2022/05/31 01:48:43;;;;;;;4.95;3.67;;;;;;;;;;5074361;28;20051;-66
2022/05/31 01:51:11;;;;;;;6.72;4.18;;;;;;;;;;5071374;28;20093;-66
2022/05/31 01:53:40;;;;;;;5.35;3.58;;;;;;;;;;5070719;28;20048;-66
2022/05/31 01:56:07;;;;;;;4.85;3.90;;;;;;;;;;5070960;28;20047;-66
2022/05/31 01:58:35;;;;;;;5.00;3.80;;;;;;;;;;5069739;28;20496;-66
2022/05/31 02:01:03;;;;;;;5.07;3.63;;;;;;;;;;5072734;28;20047;-66
2022/05/31 02:03:31;;;;;;;5.75;4.25;;;;;;;;;;5079728;28;20389;-66
2022/05/31 02:05:59;;;;;;;6.50;4.28;;;;;;;;;;5064669;28;20040;-66
2022/05/31 02:08:29;;;;;;;5.13;3.85;;;;;;;;;;5066870;28;20301;-66
2022/05/31 02:10:58;;;;;;;4.82;3.92;;;;;;;;;;5068783;28;20777;-66
2022/05/31 02:13:26;;;;;;;6.15;4.00;;;;;;;;;;5075583;28;20047;-66
2022/05/31 02:15:54;;;;;;;5.45;4.00;;;;;;;;;;5075133;28;20054;-66
2022/05/31 02:19:15;;;;;;;7.30;3.83;;;;;;;;;;5076883;28;20052;-66
2022/05/31 02:21:10;;;;;;;8.10;4.32;;;;;;;;;;5079219;28;20056;-66
2022/05/31 02:23:37;;;;;;;5.85;3.45;;;;;;;;;;5074056;28;20113;-66
2022/05/31 02:26:06;;;;;;;6.97;3.55;;;;;;;;;;5076364;28;20048;-66
2022/05/31 02:28:33;;;;;;;5.32;3.22;;;;;;;;;;5071843;28;20072;-66
2022/05/31 02:31:00;;;;;;;6.22;3.75;;;;;;;;;;5077686;28;20073;-66
2022/05/31 02:33:28;;;;;;;5.95;3.60;;;;;;;;;;5073964;28;20045;-66
2022/05/31 02:35:55;;;;;;;5.97;3.90;;;;;;;;;;5079680;28;20658;-66
2022/05/31 02:38:22;;;;;;;5.95;3.88;;;;;;;;;;5078021;28;20052;-66
2022/05/31 02:40:49;;;;;;;7.70;4.30;;;;;;;;;;5077790;28;20056;-66
2022/05/31 02:43:18;;;;;;;5.53;4.20;;;;;;;;;;5082957;28;20047;-66
2022/05/31 02:45:45;;;;;;;5.97;3.58;;;;;;;;;;5076859;28;21294;-66
2022/05/31 02:48:13;;;;;;;6.07;3.50;;;;;;;;;;5078386;28;20455;-66
2022/05/31 02:50:40;;;;;;;6.43;3.53;;;;;;;;;;5075605;28;20056;-66
2022/05/31 02:53:07;;;;;;;4.22;3.58;;;;;;;;;;5069961;28;20054;-66
2022/05/31 02:55:34;;;;;;;6.25;3.70;;;;;;;;;;5076204;28;20094;-66
2022/05/31 02:58:02;;;;;;;5.53;3.25;;;;;;;;;;5075455;28;20067;-66
2022/05/31 03:00:30;;;;;;;6.18;3.70;;;;;;;;;;5076162;28;20459;-66
2022/05/31 03:02:57;;;;;;;7.00;3.97;;;;;;;;;;5078560;28;20071;-66
2022/05/31 03:05:25;;;;;;;5.90;3.67;;;;;;;;;;5080253;28;20068;-66
2022/05/31 03:07:52;;;;;;;6.50;3.25;;;;;;;;;;5075517;28;20141;-66
2022/05/31 03:10:19;;;;;;;9.30;3.88;;;;;;;;;;5071112;28;20048;-66
2022/05/31 03:12:47;;;;;;;5.80;3.58;;;;;;;;;;5075568;28;20052;-66
2022/05/31 03:15:15;;;;;;;5.93;3.63;;;;;;;;;;5072406;28;20406;-66
2022/05/31 03:17:46;;;;;;;7.47;3.50;;;;;;;;;;5070868;28;20446;-66
2022/05/31 03:20:15;;;;;;;4.10;3.35;;;;;;;;;;5075041;28;20056;-66
2022/05/31 03:22:44;;;;;;;3.95;3.40;;;;;;;;;;5077009;28;20067;-66
2022/05/31 03:25:14;;;;;;;5.70;3.45;;;;;;;;;;5074589;28;20117;-66
2022/05/31 03:27:41;;;;;;;4.13;3.00;;;;;;;;;;5075426;28;20052;-66
2022/05/31 03:30:10;;;;;;;4.72;3.60;;;;;;;;;;5073504;28;20128;-66
2022/05/31 03:32:37;;;;;;;7.88;3.75;;;;;;;;;;5078150;28;20052;-66
2022/05/31 03:35:07;;;;;;;6.07;3.85;;;;;;;;;;5072652;28;20059;-66
2022/05/31 03:37:34;;;;;;;4.10;3.35;;;;;;;;;;5071866;28;20040;-66
2022/05/31 03:40:01;;;;;;;4.93;3.42;;;;;;;;;;5075849;28;20132;-66
2022/05/31 03:42:28;;;;;;;4.78;3.53;;;;;;;;;;5069399;28;20113;-66
2022/05/31 03:44:56;;;;;;;6.90;3.20;;;;;;;;;;5070509;28;20113;-66
2022/05/31 03:47:23;;;;;;;4.50;3.22;;;;;;;;;;5074026;28;20757;-66
2022/05/31 03:49:50;;;;;;;6.07;3.75;;;;;;;;;;5075126;28;20581;-66
2022/05/31 03:52:19;;;;;;;7.43;3.22;;;;;;;;;;5076855;28;20052;-66
2022/05/31 03:54:46;;;;;;;4.55;3.55;;;;;;;;;;5076820;28;20048;-66
2022/05/31 03:57:17;;;;;;;6.47;3.47;;;;;;;;;;5070850;28;20112;-66
2022/05/31 03:59:44;;;;;;;4.10;3.20;;;;;;;;;;5074323;28;20377;-66
2022/05/31 04:02:11;;;;;;;4.22;3.10;;;;;;;;;;5070153;28;20118;-66
2022/05/31 04:04:39;;;;;;;5.68;4.00;;;;;;;;;;5071417;28;20072;-66
2022/05/31 04:07:06;;;;;;;5.03;3.80;;;;;;;;;;5083615;28;20047;-66
2022/05/31 04:09:34;;;;;;;4.32;3.42;;;;;;;;;;5077041;28;20101;-66
2022/05/31 04:12:02;;;;;;;6.15;3.78;;;;;;;;;;5072880;28;20110;-66
2022/05/31 04:14:29;;;;;;;5.13;3.47;;;;;;;;;;5078760;28;20060;-66
2022/05/31 04:16:56;;;;;;;8.05;3.78;;;;;;;;;;5077787;28;20056;-66
2022/05/31 04:19:23;;;;;;;5.15;3.88;;;;;;;;;;5077437;28;20044;-66
2022/05/31 04:21:50;;;;;;;5.38;4.07;;;;;;;;;;5071415;28;20075;-66
2022/05/31 04:24:17;;;;;;;4.75;3.60;;;;;;;;;;5073489;28;20121;-66
2022/05/31 04:26:47;;;;;;;5.05;3.83;;;;;;;;;;5077132;28;20089;-66
2022/05/31 04:29:14;;;;;;;7.30;3.88;;;;;;;;;;5068736;28;20047;-66
2022/05/31 04:31:41;;;;;;;4.57;3.55;;;;;;;;;;5069025;28;20106;-66
2022/05/31 04:34:09;;;;;;;5.57;3.20;;;;;;;;;;5071203;28;20056;-66
2022/05/31 04:36:36;;;;;;;7.05;3.53;;;;;;;;;;5068772;28;20056;-66
2022/05/31 04:39:04;;;;;;;4.57;3.72;;;;;;;;;;5063663;28;20501;-66
2022/05/31 04:41:32;;;;;;;4.63;3.35;;;;;;;;;;5069933;28;20499;-66
2022/05/31 04:44:01;;;;;;;5.90;3.80;;;;;;;;;;5065755;28;20048;-66
2022/05/31 04:46:29;;;;;;;5.10;3.50;;;;;;;;;;5069303;28;20102;-66
2022/05/31 04:48:57;;;;;;;3.55;2.83;;;;;;;;;;5063579;28;20065;-66
2022/05/31 04:51:24;;;;;;;5.93;3.15;;;;;;;;;;5065707;28;20578;-66
2022/05/31 04:53:52;;;;;;;6.18;3.25;;;;;;;;;;5065471;28;20147;-66
2022/05/31 04:56:20;;;;;;;4.63;3.42;;;;;;;;;;5066760;28;20094;-66
2022/05/31 04:58:48;;;;;;;6.95;3.53;;;;;;;;;;5065955;28;21279;-66
2022/05/31 05:01:16;;;;;;;5.20;3.55;;;;;;;;;;5066123;28;20055;-66
2022/05/31 05:03:44;;;;;;;7.22;3.50;;;;;;;;;;5068165;28;20159;-66
2022/05/31 05:06:12;;;;;;;8.07;3.00;;;;;;;;;;5067870;28;20653;-66
2022/05/31 05:08:40;;;;;;;5.97;3.65;;;;;;;;;;5067545;28;20055;-66
2022/05/31 05:11:09;;;;;;;7.43;3.88;;;;;;;;;;5067922;28;20056;-66
2022/05/31 05:13:36;;;;;;;7.32;4.18;;;;;;;;;;5065074;28;20060;-66
2022/05/31 05:16:04;;;;;;;5.60;3.50;;;;;;;;;;5065255;28;20052;-66
2022/05/31 05:18:34;;;;;;;7.57;3.55;;;;;;;;;;5059387;28;20048;-67
2022/05/31 05:21:01;;;;;;;7.53;4.07;;;;;;;;;;5064751;28;20083;-67
2022/05/31 05:23:29;;;;;;;4.50;3.60;;;;;;;;;;5068236;28;20186;-67
2022/05/31 05:25:57;;;;;;;7.18;4.03;;;;;;;;;;5065650;28;20059;-67
2022/05/31 05:31:19;;;;;;;8.52;3.83;;;;;;;;;;5071163;28;20075;-67
2022/05/31 05:33:47;;;;;;;5.93;3.47;;;;;;;;;;5073117;28;20487;-67
2022/05/31 05:36:14;;;;;;;8.43;3.60;;;;;;;;;;5067249;28;20057;-67
2022/05/31 05:38:42;;;;;;;6.32;3.72;;;;;;;;;;5070820;28;20048;-67
2022/05/31 05:41:09;;;;;;;8.23;4.05;;;;;;;;;;5080115;28;20097;-67
2022/05/31 05:43:37;;;;;;;7.15;3.75;;;;;;;;;;5066999;28;20052;-67
2022/05/31 05:46:04;;;;;;;6.13;3.47;;;;;;;;;;5069132;28;20064;-67
2022/05/31 05:48:31;;;;;;;4.22;3.30;;;;;;;;;;5069088;28;20052;-67
2022/05/31 05:51:00;;;;;;;5.15;3.03;;;;;;;;;;5072821;28;20093;-67
2022/05/31 05:53:28;;;;;;;4.25;3.38;;;;;;;;;;5077213;28;20056;-67
2022/05/31 05:55:55;;;;;;;8.40;3.28;;;;;;;;;;5073984;28;20052;-67
2022/05/31 05:58:22;;;;;;;5.43;2.97;;;;;;;;;;5080662;28;20043;-67
2022/05/31 06:00:53;;;;;;;5.38;3.22;;;;;;;;;;5079921;28;20048;-67
2022/05/31 06:03:23;;;;;;;7.53;3.40;;;;;;;;;;5074475;28;20098;-67
2022/05/31 06:05:52;;;;;;;4.55;2.92;;;;;;;;;;5080712;28;20044;-67
2022/05/31 06:08:22;;;;;;;6.93;3.40;;;;;;;;;;5078422;28;20317;-67
2022/05/31 06:10:56;;;;;;;5.70;3.50;;;;;;;;;;5073327;28;20506;-67
2022/05/31 06:13:25;;;;;;;7.40;3.00;;;;;;;;;;5080597;28;20044;-67
2022/05/31 06:15:54;;;;;;;4.82;2.88;;;;;;;;;;5079477;28;20064;-67
2022/05/31 06:18:23;;;;;;;4.30;3.05;;;;;;;;;;5080900;28;20057;-67
2022/05/31 06:20:52;;;;;;;4.32;2.50;;;;;;;;;;5077291;28;20048;-67
2022/05/31 06:23:20;;;;;;;4.82;2.95;;;;;;;;;;5076793;28;20055;-67
2022/05/31 06:25:48;;;;;;;4.22;3.00;;;;;;;;;;5077961;28;20052;-67
2022/05/31 06:28:18;;;;;;;8.77;3.75;;;;;;;;;;5073525;28;20055;-67
2022/05/31 06:30:45;;;;;;;6.13;3.60;;;;;;;;;;5073003;28;20052;-67
2022/05/31 06:33:12;;;;;;;6.65;3.42;;;;;;;;;;5076772;28;20153;-67
2022/05/31 06:35:39;;;;;;;4.90;2.90;;;;;;;;;;5077191;28;20552;-67
2022/05/31 06:38:06;;;;;;;5.45;3.40;;;;;;;;;;5076772;28;20102;-67
2022/05/31 06:40:35;;;;;;;5.18;3.00;;;;;;;;;;5076633;28;20105;-67
2022/05/31 06:43:03;;;;;;;9.73;2.92;;;;;;;;;;5075617;28;20589;-67
2022/05/31 06:45:30;;;;;;;3.88;2.80;;;;;;;;;;5073148;28;20052;-67
2022/05/31 06:47:57;;;;;;;6.00;3.08;;;;;;;;;;5078407;28;20098;-67
2022/05/31 06:50:24;;;;;;;4.65;2.63;;;;;;;;;;5078634;28;20052;-67
2022/05/31 06:58:22;;;;;;;3.60;2.70;;;;;;;;;;5071949;28;20051;-67
2022/05/31 07:00:49;;;;;;;5.07;2.80;;;;;;;;;;5076464;28;20056;-67
2022/05/31 07:03:17;;;;;;;4.80;2.72;;;;;;;;;;5073159;28;20060;-67
2022/05/31 07:05:44;;;;;;;5.28;2.70;;;;;;;;;;5078393;28;20064;-67
2022/05/31 07:08:11;;;;;;;7.03;2.60;;;;;;;;;;5071547;28;20048;-67
2022/05/31 07:10:40;;;;;;;4.55;3.17;;;;;;;;;;5076875;28;20405;-67
2022/05/31 07:13:07;;;;;;;3.30;3.00;;;;;;;;;;5076152;28;20049;-67
2022/05/31 07:15:34;;;;;;;3.55;2.60;;;;;;;;;;5078072;28;20060;-67
2022/05/31 07:18:04;;;;;;;5.30;3.00;;;;;;;;;;5079063;28;20128;-67
2022/05/31 07:20:31;;;;;;;6.35;3.42;;;;;;;;;;5081240;28;20419;-67
2022/05/31 07:22:59;;;;;;;5.25;3.22;;;;;;;;;;5076911;28;20062;-67
2022/05/31 07:25:26;;;;;;;4.15;3.13;;;;;;;;;;5085351;28;20089;-67
2022/05/31 07:27:54;;;;;;;4.68;2.80;;;;;;;;;;5075084;28;20061;-67
2022/05/31 07:30:22;;;;;;;6.53;3.15;;;;;;;;;;5079260;28;20114;-67
2022/05/31 07:32:49;;;;;;;4.15;3.03;;;;;;;;;;5074610;28;20130;-67
2022/05/31 07:35:17;;;;;;;4.60;2.97;;;;;;;;;;5077110;28;20572;-67
2022/05/31 07:37:45;;;;;;;4.18;2.50;;;;;;;;;;5076107;28;20118;-67
2022/05/31 07:40:12;;;;;;;5.32;3.15;;;;;;;;;;5078175;28;20044;-67
2022/05/31 07:42:39;;;;;;;4.07;3.20;;;;;;;;;;5077427;28;20094;-67
2022/05/31 07:45:09;;;;;;;5.00;3.03;;;;;;;;;;5071376;28;20051;-67
2022/05/31 07:47:36;;;;;;;3.88;2.55;;;;;;;;;;5077371;28;20052;-67
2022/05/31 07:50:03;;;;;;;10.15;2.92;;;;;;;;;;5077233;28;20044;-67
2022/05/31 07:52:32;;;;;;;4.70;2.70;;;;;;;;;;5076815;28;20048;-67
2022/05/31 07:55:01;;;;;;;5.63;2.63;;;;;;;;;;5078507;28;20047;-67
2022/05/31 08:00:20;;;;;;;6.88;3.10;;;;;;;;;;5049489;28;20044;-67
2022/05/31 08:02:48;;;;;;;6.30;2.90;;;;;;;;;;5071637;28;20044;-67
2022/05/31 08:05:15;;;;;;;6.22;3.00;;;;;;;;;;5075308;28;20044;-67
2022/05/31 08:07:43;;;;;;;7.55;3.05;;;;;;;;;;5075199;28;20074;-67
2022/05/31 08:10:11;;;;;;;6.95;2.80;;;;;;;;;;5075734;28;20052;-67
2022/05/31 08:12:38;;;;;;;3.45;2.70;;;;;;;;;;5075636;28;20045;-68
2022/05/31 08:15:06;;;;;;;8.15;3.10;;;;;;;;;;5079795;28;20048;-68
2022/05/31 08:17:35;;;;;;;6.38;2.88;;;;;;;;;;5074079;28;20518;-68
2022/05/31 08:20:03;;;;;;;6.00;3.28;;;;;;;;;;5074920;28;20098;-68
2022/05/31 08:22:30;;;;;;;6.47;2.88;;;;;;;;;;5076461;28;20056;-67
2022/05/31 08:24:57;;;;;;;5.80;3.10;;;;;;;;;;5066122;28;20481;-67
2022/05/31 08:27:24;;;;;;;8.52;3.72;;;;;;;;;;5068747;28;20105;-67
2022/05/31 08:29:52;;;;;;;5.50;2.60;;;;;;;;;;5075264;28;20052;-67
2022/05/31 08:32:19;;;;;;;5.43;3.20;;;;;;;;;;5072145;28;20052;-67
2022/05/31 08:34:48;;;;;;;8.10;3.30;;;;;;;;;;5072896;28;20044;-67
2022/05/31 08:37:16;;;;;;;7.75;3.20;;;;;;;;;;5069687;28;20059;-67
2022/05/31 08:39:44;;;;;;;5.93;2.72;;;;;;;;;;5071550;28;20413;-67
2022/05/31 08:42:13;;;;;;;6.65;3.00;;;;;;;;;;5077243;28;20116;-67
2022/05/31 08:44:46;;;;;;;7.75;3.42;;;;;;;;;;5080443;28;20328;-67
2022/05/31 08:47:19;;;;;;;6.55;3.25;;;;;;;;;;5067002;28;20491;-67
2022/05/31 08:52:42;;;;;;;6.20;3.10;;;;;;;;;;5079777;28;19984;-67
2022/05/31 08:58:02;;;;;;;7.97;3.92;;;;;;;;;;5071245;28;20059;-67
2022/05/31 09:00:32;;;;;;;7.18;3.80;;;;;;;;;;5069903;28;20052;-67
2022/05/31 09:03:02;;;;;;;9.13;3.50;;;;;;;;;;5082219;28;20060;-67
2022/05/31 09:05:31;;;;;;;7.25;3.38;;;;;;;;;;5075376;28;20140;-67
2022/05/31 09:08:02;;;;;;;8.90;3.30;;;;;;;;;;5074754;28;20684;-67
2022/05/31 09:10:32;;;;;;;10.23;3.60;;;;;;;;;;5078867;28;20059;-67
2022/05/31 09:13:02;;;;;;;7.10;3.80;;;;;;;;;;5075221;28;20110;-67
2022/05/31 09:15:34;;;;;;;7.00;3.42;;;;;;;;;;5070470;28;20070;-67
2022/05/31 09:18:04;;;;;;;8.07;3.47;;;;;;;;;;5070486;28;20117;-67
2022/05/31 09:20:34;;;;;;;6.43;3.70;;;;;;;;;;5079314;28;20052;-67
2022/05/31 09:23:02;;;;;;;6.82;3.90;;;;;;;;;;5076711;28;20048;-67
2022/05/31 09:25:34;;;;;;;7.75;4.00;;;;;;;;;;5075324;28;20113;-67
2022/05/31 09:28:04;;;;;;;7.85;3.90;;;;;;;;;;5079487;28;20052;-67
2022/05/31 09:30:37;;;;;;;8.18;3.88;;;;;;;;;;5079553;28;20064;-67
2022/05/31 09:33:10;;;;;;;10.70;3.88;;;;;;;;;;5075405;28;20090;-67
2022/05/31 09:35:43;;;;;;;7.85;3.90;;;;;;;;;;5084654;28;20055;-67
2022/05/31 09:38:24;;;;;;;7.10;3.65;;;;;;;;;;5082431;28;20055;-67
2022/05/31 09:40:51;;;;;;;11.68;4.07;;;;;;;;;;5082866;28;20063;-67
2022/05/31 09:43:24;;;;;;;6.45;3.75;;;;;;;;;;5074677;28;20045;-67
2022/05/31 09:45:54;;;;;;;9.27;4.27;;;;;;;;;;5081267;28;20052;-67
2022/05/31 09:48:21;;;;;;;8.65;3.60;;;;;;;;;;5077338;28;20057;-67
2022/05/31 09:50:49;;;;;;;8.45;3.70;;;;;;;;;;5082658;28;20405;-67
2022/05/31 09:59:05;;;;;;;8.18;4.32;;;;;;;;;;5074095;28;20182;-67
2022/05/31 10:01:32;;;;;;;12.00;4.68;;;;;;;;;;5076961;28;20093;-67
2022/05/31 10:04:08;;;;;;;7.70;4.28;;;;;;;;;;5078595;28;20048;-67
2022/05/31 10:06:36;;;;;;;8.10;4.35;;;;;;;;;;5081794;28;20051;-67
2022/05/31 10:09:16;;;;;;;9.43;4.22;;;;;;;;;;5085968;28;20386;-67
2022/05/31 10:11:45;;;;;;;6.95;4.10;;;;;;;;;;5081759;28;20130;-67
2022/05/31 10:14:22;;;;;;;8.48;4.07;;;;;;;;;;5080337;28;20055;-67
2022/05/31 10:16:49;;;;;;;10.10;4.35;;;;;;;;;;5077963;28;20062;-67
2022/05/31 10:19:23;;;;;;;8.55;4.25;;;;;;;;;;5079821;28;20114;-67
2022/05/31 10:21:50;;;;;;;10.32;4.10;;;;;;;;;;5078039;28;20060;-69
2022/05/31 10:24:19;;;;;;;9.93;4.50;;;;;;;;;;5075807;28;20128;-69
2022/05/31 10:27:04;;;;;;;13.25;4.40;;;;;;;;;;5082858;28;20052;-69
2022/05/31 10:29:36;;;;;;;8.13;4.32;;;;;;;;;;5081449;28;20495;-69
2022/05/31 10:32:22;;;;;;;10.73;4.35;;;;;;;;;;5074855;28;20059;-69
2022/05/31 10:34:50;;;;;;;8.70;4.88;;;;;;;;;;5079340;28;20063;-69
2022/05/31 10:37:24;;;;;;;7.75;4.45;;;;;;;;;;5076599;28;20051;-69
2022/05/31 10:40:01;;;;;;;9.13;4.47;;;;;;;;;;5079217;28;20066;-69
2022/05/31 10:42:30;;;;;;;8.70;4.50;;;;;;;;;;5081639;28;20071;-69
2022/05/31 10:45:02;;;;;;;9.30;4.85;;;;;;;;;;5082282;28;20059;-69
2022/05/31 10:47:29;;;;;;;13.10;4.85;;;;;;;;;;5082005;28;20051;-69
2022/05/31 10:49:57;;;;;;;9.75;4.88;;;;;;;;;;5070085;28;20067;-69
2022/05/31 10:52:29;;;;;;;12.23;5.47;;;;;;;;;;5071774;28;20067;-69
2022/05/31 10:55:17;;;;;;;9.43;4.75;;;;;;;;;;5078358;28;20070;-69
2022/05/31 10:57:54;;;;;;;6.80;4.38;;;;;;;;;;5080110;28;20048;-69
2022/05/31 11:00:22;;;;;;;9.10;4.22;;;;;;;;;;5075091;28;20514;-69
2022/05/31 11:03:03;;;;;;;8.95;4.38;;;;;;;;;;5071354;28;20060;-69
2022/05/31 11:05:37;;;;;;;8.35;4.32;;;;;;;;;;5082404;28;20129;-69
2022/05/31 11:13:55;;;;;;;7.53;4.32;;;;;;;;;;5073937;28;20114;-69
2022/05/31 11:16:25;;;;;;;10.57;4.45;;;;;;;;;;5072634;28;20078;-70
2022/05/31 11:19:04;;;;;;;9.52;5.00;;;;;;;;;;5084647;28;20514;-69
2022/05/31 11:21:43;;;;;;;11.25;4.63;;;;;;;;;;5076914;28;20048;-69
2022/05/31 11:24:20;;;;;;;13.25;4.47;;;;;;;;;;5072385;28;20052;-69
2022/05/31 11:26:58;;;;;;;7.60;4.18;;;;;;;;;;5075905;28;20147;-69
2022/05/31 11:29:38;;;;;;;12.18;4.60;;;;;;;;;;5080190;28;20056;-70
2022/05/31 11:32:09;;;;;;;7.60;4.07;;;;;;;;;;5074315;28;20108;-70
2022/05/31 11:34:41;;;;;;;9.88;4.50;;;;;;;;;;5079241;28;20052;-70
2022/05/31 11:37:13;;;;;;;8.65;3.97;;;;;;;;;;5077514;28;20093;-70
2022/05/31 11:39:52;;;;;;;7.43;3.90;;;;;;;;;;5082654;28;20051;-70
2022/05/31 11:42:23;;;;;;;9.43;4.10;;;;;;;;;;5076099;28;20044;-69
2022/05/31 11:45:04;;;;;;;9.20;4.20;;;;;;;;;;5079120;28;20132;-69
2022/05/31 11:47:41;;;;;;;11.18;4.25;;;;;;;;;;5075335;28;20109;-69
2022/05/31 11:50:14;;;;;;;8.70;4.03;;;;;;;;;;5077574;28;20045;-69
2022/05/31 11:52:56;;;;;;;8.30;3.65;;;;;;;;;;5081839;28;20071;-69
2022/05/31 11:55:28;;;;;;;7.50;3.70;;;;;;;;;;5076441;28;20048;-70
2022/05/31 11:58:18;;;;;;;6.72;3.30;;;;;;;;;;5067384;28;20795;-70
2022/05/31 12:00:49;;;;;;;9.02;3.58;;;;;;;;;;5073644;28;20044;-70
2022/05/31 12:03:20;;;;;;;6.22;2.97;;;;;;;;;;5078918;28;20121;-70
2022/05/31 12:05:50;;;;;;;9.05;3.10;;;;;;;;;;5077299;28;20102;-70
2022/05/31 12:08:20;;;;;;;7.13;3.50;;;;;;;;;;5082289;28;20129;-70
2022/05/31 12:10:48;;;;;;;10.50;3.40;;;;;;;;;;5081400;28;20450;-70
2022/05/31 12:13:16;;;;;;;7.38;3.40;;;;;;;;;;5077068;28;20408;-70
2022/05/31 12:15:45;;;;;;;6.35;3.55;;;;;;;;;;5077391;28;20097;-70
2022/05/31 12:18:19;;;;;;;9.30;3.63;;;;;;;;;;5076761;28;20054;-70
2022/05/31 12:20:50;;;;;;;7.47;3.70;;;;;;;;;;5078219;28;20084;-70
2022/05/31 12:23:19;;;;;;;9.07;4.15;;;;;;;;;;5077599;28;20120;-70
2022/05/31 12:25:49;;;;;;;7.53;4.22;;;;;;;;;;5070015;28;20052;-70
2022/05/31 12:28:19;;;;;;;7.95;3.20;;;;;;;;;;5079766;28;20521;-70
2022/05/31 12:30:51;;;;;;;8.68;3.55;;;;;;;;;;5078663;28;20048;-70
2022/05/31 12:33:37;;;;;;;6.00;3.00;;;;;;;;;;5077919;28;20052;-70
2022/05/31 12:36:04;;;;;;;5.93;2.75;;;;;;;;;;5076697;28;20083;-70
2022/05/31 12:38:51;;;;;;;9.55;4.30;;;;;;;;;;5076677;28;20063;-70
2022/05/31 12:41:32;;;;;;;11.57;5.22;;;;;;;;;;5082048;28;20444;-70
2022/05/31 12:44:01;;;;;;;12.98;5.45;;;;;;;;;;5079543;28;20044;-70
2022/05/31 12:46:33;;;;;;;7.18;5.10;;;;;;;;;;5069216;28;20052;-70
2022/05/31 12:49:03;;;;;;;8.77;5.47;;;;;;;;;;5081409;28;20052;-70
2022/05/31 12:51:31;;;;;;;12.88;6.18;;;;;;;;;;5075041;28;20519;-69
2022/05/31 12:54:00;;;;;;;10.20;5.75;;;;;;;;;;5075902;28;20402;-69
2022/05/31 12:56:38;;;;;;;10.15;5.32;;;;;;;;;;5079108;28;20109;-69
2022/05/31 12:59:06;;;;;;;9.77;5.90;;;;;;;;;;5074468;28;20094;-69
2022/05/31 13:01:35;;;;;;;10.38;5.55;;;;;;;;;;5080516;28;20055;-69
2022/05/31 13:04:10;;;;;;;7.95;5.13;;;;;;;;;;5077806;28;20674;-69
2022/05/31 13:06:58;;;;;;;9.85;5.35;;;;;;;;;;5083055;28;20130;-69
2022/05/31 13:09:36;;;;;;;13.88;5.63;;;;;;;;;;5078762;28;20056;-69
2022/05/31 13:20:41;;;;;;;8.77;5.40;;;;;;;;;;5076231;28;20055;-69
2022/05/31 13:23:13;;;;;;;8.93;5.40;;;;;;;;;;5074846;28;20098;-69
2022/05/31 13:25:43;;;;;;;8.45;4.93;;;;;;;;;;5077144;28;20117;-69
2022/05/31 13:28:22;;;;;;;7.82;5.38;;;;;;;;;;5070369;28;20063;-69
2022/05/31 13:30:49;;;;;;;10.50;5.32;;;;;;;;;;5074635;28;20057;-69
2022/05/31 13:33:19;;;;;;;10.30;5.15;;;;;;;;;;5079143;28;20091;-69
2022/05/31 13:35:57;;;;;;;7.25;4.70;;;;;;;;;;5081769;28;20171;-69
2022/05/31 13:38:25;;;;;;;8.18;5.13;;;;;;;;;;5077385;28;20462;-69
2022/05/31 13:40:54;;;;;;;9.82;5.00;;;;;;;;;;5080560;28;20048;-69
2022/05/31 13:43:24;;;;;;;8.70;4.80;;;;;;;;;;5073304;28;20060;-69
2022/05/31 13:45:52;;;;;;;6.95;4.63;;;;;;;;;;5077420;28;20079;-69
2022/05/31 13:48:20;;;;;;;5.85;4.40;;;;;;;;;;5077172;28;20047;-69
2022/05/31 13:50:58;;;;;;;6.38;4.50;;;;;;;;;;5072526;28;20052;-69
2022/05/31 13:53:25;;;;;;;6.72;4.50;;;;;;;;;;5077215;28;20453;-69
2022/05/31 13:55:56;;;;;;;6.30;4.43;;;;;;;;;;5072646;28;20499;-70
2022/05/31 13:58:29;;;;;;;7.07;4.28;;;;;;;;;;5073725;28;20135;-70
2022/05/31 14:00:56;;;;;;;9.02;5.13;;;;;;;;;;5081614;28;20422;-70
2022/05/31 14:03:27;;;;;;;7.28;4.70;;;;;;;;;;5074837;28;20066;-70
2022/05/31 14:05:58;;;;;;;14.10;4.22;;;;;;;;;;5081036;28;20083;-70
2022/05/31 14:08:26;;;;;;;5.80;3.88;;;;;;;;;;5079275;28;20070;-70
2022/05/31 14:10:54;;;;;;;5.80;3.60;;;;;;;;;;5077224;28;20056;-70
2022/05/31 14:13:24;;;;;;;9.07;4.28;;;;;;;;;;5076794;28;20044;-70
2022/05/31 14:15:51;;;;;;;13.65;4.78;;;;;;;;;;5079253;28;20044;-70
2022/05/31 14:18:19;;;;;;;6.47;4.65;;;;;;;;;;5081611;28;20218;-70
2022/05/31 14:20:48;;;;;;;6.07;4.07;;;;;;;;;;5081993;28;20044;-70
2022/05/31 14:23:19;;;;;;;9.18;4.72;;;;;;;;;;5076412;28;20048;-70
2022/05/31 14:25:49;;;;;;;5.57;4.18;;;;;;;;;;5076135;28;20105;-70
2022/05/31 14:28:17;;;;;;;6.35;5.28;;;;;;;;;;5082347;28;20066;-70
2022/05/31 14:30:50;;;;;;;7.50;5.10;;;;;;;;;;5081456;28;20482;-69
2022/05/31 14:33:18;;;;;;;8.57;4.93;;;;;;;;;;5076940;28;20077;-69
2022/05/31 14:35:46;;;;;;;7.57;4.97;;;;;;;;;;5085858;28;20052;-69
2022/05/31 14:38:17;;;;;;;9.57;5.28;;;;;;;;;;5077792;28;20072;-69
2022/05/31 14:40:52;;;;;;;8.73;4.85;;;;;;;;;;5085272;28;20077;-69
2022/05/31 14:43:28;;;;;;;10.50;4.40;;;;;;;;;;5070498;28;20077;-69
2022/05/31 14:45:55;;;;;;;7.13;5.25;;;;;;;;;;5076288;28;20498;-69
2022/05/31 14:48:47;;;;;;;6.55;5.30;;;;;;;;;;5076310;28;20071;-69
2022/05/31 14:51:17;;;;;;;9.02;5.40;;;;;;;;;;5066091;28;20052;-69
2022/05/31 14:53:45;;;;;;;8.88;5.38;;;;;;;;;;5079312;28;20084;-69
2022/05/31 14:56:24;;;;;;;6.55;5.25;;;;;;;;;;5075289;28;20132;-69
2022/05/31 14:58:55;;;;;;;8.80;5.13;;;;;;;;;;5076316;28;20123;-69
2022/05/31 15:01:26;;;;;;;7.78;5.45;;;;;;;;;;5077269;28;20392;-69
2022/05/31 15:03:58;;;;;;;7.07;5.00;;;;;;;;;;5082157;28;20063;-69
2022/05/31 15:06:27;;;;;;;6.90;5.53;;;;;;;;;;5077569;28;20060;-69
2022/05/31 15:09:05;;;;;;;9.30;6.10;;;;;;;;;;5085332;28;20445;-69
2022/05/31 15:19:50;;;;;;;8.57;5.57;;;;;;;;;;5074509;28;20063;-69
2022/05/31 15:22:18;;;;;;;10.05;6.20;;;;;;;;;;5071664;28;20090;-69
2022/05/31 15:24:47;;;;;;;11.40;6.07;;;;;;;;;;5077899;28;20147;-69
2022/05/31 15:27:19;;;;;;;12.75;5.88;;;;;;;;;;5072064;28;20498;-69
2022/05/31 15:29:46;;;;;;;8.55;6.30;;;;;;;;;;5079563;28;20056;-69
2022/05/31 15:32:13;;;;;;;7.43;5.85;;;;;;;;;;5074397;28;20060;-69
2022/05/31 15:34:40;;;;;;;8.68;6.72;;;;;;;;;;5076581;28;20094;-69
2022/05/31 15:37:08;;;;;;;9.52;6.35;;;;;;;;;;5069281;28;20463;-69
2022/05/31 15:39:36;;;;;;;7.97;5.85;;;;;;;;;;5071963;28;20052;-69
2022/05/31 15:42:03;;;;;;;10.60;6.20;;;;;;;;;;5071823;28;20059;-69